createdAt,value
2023-02-08T00:02:27.119Z,102527.13
2023-02-08T00:05:29.973Z,102532.16
2023-02-08T00:08:33.425Z,102529.63
2023-02-08T00:11:36.837Z,102533.78
2023-02-08T00:14:39.588Z,102537.13
2023-02-08T00:17:42.367Z,102540.63
2023-02-08T00:20:46.107Z,102544.00
2023-02-08T00:23:49.103Z,102549.94
2023-02-08T00:26:51.896Z,102544.81
2023-02-08T00:29:55.042Z,102531.31
2023-02-08T00:33:01.367Z,102543.81
2023-02-08T00:36:06.494Z,102545.63
2023-02-08T00:39:09.322Z,102547.47
2023-02-08T00:42:12.148Z,102544.88
2023-02-08T00:45:15.489Z,102542.28
2023-02-08T00:48:18.245Z,102546.41
2023-02-08T00:51:21.046Z,102544.66
2023-02-08T00:54:25.740Z,102541.25
2023-02-08T00:57:28.483Z,102549.72
2023-02-08T01:00:31.958Z,102533.75
2023-02-08T01:03:37.334Z,102548.09
2023-02-08T01:06:40.289Z,102547.25
2023-02-08T01:09:43.030Z,102548.84
2023-02-08T01:12:45.800Z,102542.09
2023-02-08T01:15:48.601Z,102551.31
2023-02-08T01:18:53.992Z,102546.25
2023-02-08T01:21:56.948Z,102549.59
2023-02-08T01:25:01.278Z,102552.06
2023-02-08T01:28:05.797Z,102557.13
2023-02-08T01:31:16.535Z,102557.13
2023-02-08T01:34:19.335Z,102554.44
2023-02-08T01:37:22.142Z,102549.31
2023-02-08T01:40:25.276Z,102560.91
2023-02-08T01:43:35.096Z,102562.47
2023-02-08T01:46:49.388Z,102559.03
2023-02-08T01:49:52.320Z,102550.41
2023-02-08T01:52:55.231Z,102548.88
2023-02-08T01:56:02.134Z,102553.13
2023-02-08T01:59:12.753Z,102558.25
2023-02-08T02:02:19.857Z,102560.53
2023-02-08T02:05:26.356Z,102557.91
2023-02-08T02:08:30.690Z,102549.34
2023-02-08T02:11:34.424Z,102536.47
2023-02-08T02:14:39.054Z,102538.78
2023-02-08T02:17:42.143Z,102552.16
2023-02-08T02:20:59.018Z,102557.88
2023-02-08T02:24:19.985Z,102552.66
2023-02-08T02:27:31.772Z,102546.84
2023-02-08T02:31:15.441Z,102555.38
2023-02-08T02:34:46.648Z,102553.66
2023-02-08T02:37:59.557Z,102551.81
2023-02-08T02:41:58.820Z,102561.91
2023-02-08T02:45:23.912Z,102557.41
2023-02-08T02:48:52.439Z,102543.81
2023-02-08T02:52:02.134Z,102564.72
2023-02-08T02:55:11.832Z,102564.47
2023-02-08T02:58:16.962Z,102557.69
2023-02-08T03:01:26.958Z,102561.91
2023-02-08T03:04:32.627Z,102564.44
2023-02-08T03:08:00.453Z,102561.09
2023-02-08T03:11:06.805Z,102559.44
2023-02-08T03:14:24.541Z,102558.28
2023-02-08T03:18:01.607Z,102565.91
2023-02-08T03:21:18.137Z,102568.59
2023-02-08T03:24:39.556Z,102558.34
2023-02-08T03:28:11.255Z,102560.09
2023-02-08T03:31:17.097Z,102565.09
2023-02-08T03:34:28.972Z,102558.28
2023-02-08T03:37:45.694Z,102560.69
2023-02-08T03:40:56.188Z,102559.72
2023-02-08T03:44:09.691Z,102554.63
2023-02-08T03:47:29.173Z,102553.78
2023-02-08T03:50:35.372Z,102552.81
2023-02-08T03:53:41.327Z,102548.84
2023-02-08T03:56:47.549Z,102547.13
2023-02-08T03:59:59.107Z,102545.44
2023-02-08T04:03:05.166Z,102547.81
2023-02-08T04:06:08.035Z,102555.38
2023-02-08T04:09:11.714Z,102553.84
2023-02-08T04:12:15.441Z,102552.16
2023-02-08T04:15:18.629Z,102548.88
2023-02-08T04:18:21.352Z,102554.72
2023-02-08T04:21:24.124Z,102546.25
2023-02-08T04:24:26.797Z,102548.78
2023-02-08T04:27:29.552Z,102546.25
2023-02-08T04:30:33.273Z,102547.88
2023-02-08T04:33:36.068Z,102548.75
2023-02-08T04:36:38.897Z,102558.19
2023-02-08T04:39:41.714Z,102543.84
2023-02-08T04:42:44.568Z,102547.25
2023-02-08T04:45:48.850Z,102556.31
2023-02-08T04:48:51.633Z,102563.13
2023-02-08T04:51:54.433Z,102559.72
2023-02-08T04:54:57.122Z,102558.13
2023-02-08T04:57:59.800Z,102557.28
2023-02-08T05:01:10.907Z,102553.94
2023-02-08T05:04:13.744Z,102553.84
2023-02-08T05:07:16.439Z,102563.16
2023-02-08T05:10:19.795Z,102557.91
2023-02-08T05:13:23.687Z,102563.78
2023-02-08T05:16:26.865Z,102561.16
2023-02-08T05:19:29.675Z,102564.72
2023-02-08T05:22:33.633Z,102564.56
2023-02-08T05:25:38.487Z,102571.25
2023-02-08T05:28:41.322Z,102585.50
2023-02-08T05:31:44.453Z,102579.59
2023-02-08T05:34:47.921Z,102588.00
2023-02-08T05:37:50.718Z,102588.97
2023-02-08T05:40:53.423Z,102596.66
2023-02-08T05:43:56.484Z,102594.03
2023-02-08T05:46:59.407Z,102592.31
2023-02-08T05:50:02.306Z,102590.84
2023-02-08T05:53:06.800Z,102575.91
2023-02-08T05:56:09.650Z,102602.75
2023-02-08T05:59:12.485Z,102604.59
2023-02-08T06:02:15.380Z,102601.97
2023-02-08T06:05:18.450Z,102623.03
2023-02-08T06:08:21.132Z,102624.69
2023-02-08T06:11:26.287Z,102624.56
2023-02-08T06:14:29.073Z,102627.38
2023-02-08T06:17:31.831Z,102620.66
2023-02-08T06:20:35.139Z,102635.88
2023-02-08T06:23:37.946Z,102629.72
2023-02-08T06:26:40.781Z,102633.97
2023-02-08T06:29:44.058Z,102640.75
2023-02-08T06:32:47.221Z,102623.03
2023-02-08T06:35:53.694Z,102628.97
2023-02-08T06:38:56.546Z,102612.00
2023-02-08T06:41:59.382Z,102611.19
2023-02-08T06:45:02.259Z,102628.03
2023-02-08T06:48:06.033Z,102630.47
2023-02-08T06:51:09.740Z,102639.59
2023-02-08T06:54:12.500Z,102643.94
2023-02-08T06:57:15.232Z,102634.25
2023-02-08T07:00:18.606Z,102640.63
2023-02-08T07:03:22.702Z,102626.63
2023-02-08T07:06:25.774Z,102628.22
2023-02-08T07:09:28.990Z,102637.88
2023-02-08T07:12:35.851Z,102621.97
2023-02-08T07:15:38.709Z,102625.47
2023-02-08T07:18:41.460Z,102632.13
2023-02-08T07:21:44.277Z,102637.78
2023-02-08T07:24:47.054Z,102634.44
2023-02-08T07:27:50.105Z,102635.19
2023-02-08T07:30:55.929Z,102636.38
2023-02-08T07:33:59.908Z,102632.53
2023-02-08T07:37:02.943Z,102634.47
2023-02-08T07:40:06.031Z,102635.53
2023-02-08T07:43:08.916Z,102628.22
2023-02-08T07:46:22.339Z,102629.69
2023-02-08T07:49:25.623Z,102634.75
2023-02-08T07:52:29.222Z,102641.72
2023-02-08T07:55:32.039Z,102652.38
2023-02-08T07:58:34.880Z,102647.31
2023-02-08T08:01:37.741Z,102643.19
2023-02-08T08:04:40.575Z,102654.88
2023-02-08T08:07:43.305Z,102657.69
2023-02-08T08:10:46.551Z,102662.44
2023-02-08T08:13:49.929Z,102657.19
2023-02-08T08:16:52.701Z,102645.03
2023-02-08T08:19:55.768Z,102650.84
2023-02-08T08:22:58.966Z,102661.19
2023-02-08T08:26:07.453Z,102655.53
2023-02-08T08:29:10.345Z,102671.84
2023-02-08T08:32:13.118Z,102657.22
2023-02-08T08:35:15.967Z,102661.91
2023-02-08T08:38:18.788Z,102659.81
2023-02-08T08:41:23.300Z,102658.63
2023-02-08T08:44:26.088Z,102669.47
2023-02-08T08:47:29.244Z,102667.00
2023-02-08T08:50:33.213Z,102662.44
2023-02-08T08:53:37.261Z,102669.22
2023-02-08T08:56:40.035Z,102674.22
2023-02-08T08:59:42.926Z,102671.56
2023-02-08T09:02:45.856Z,102677.75
2023-02-08T09:05:48.734Z,102691.94
2023-02-08T09:08:51.876Z,102691.22
2023-02-08T09:11:54.732Z,102686.97
2023-02-08T09:14:57.688Z,102700.13
2023-02-08T09:18:00.925Z,102681.84
2023-02-08T09:21:18.989Z,102694.28
2023-02-08T09:24:22.204Z,102702.69
2023-02-08T09:27:25.032Z,102694.25
2023-02-08T09:30:28.309Z,102696.03
2023-02-08T09:33:33.477Z,102702.19
2023-02-08T09:36:39.682Z,102710.78
2023-02-08T09:39:42.452Z,102716.16
2023-02-08T09:43:01.188Z,102707.56
2023-02-08T09:46:22.905Z,102717.75
2023-02-08T09:49:32.945Z,102709.03
2023-02-08T09:52:42.913Z,102704.97
2023-02-08T09:55:54.736Z,102713.31
2023-02-08T09:59:00.883Z,102707.44
2023-02-08T10:02:40.172Z,102714.53
2023-02-08T10:05:42.979Z,102703.69
2023-02-08T10:08:49.323Z,102706.97
2023-02-08T10:12:28.322Z,102702.03
2023-02-08T10:15:42.198Z,102708.63
2023-02-08T10:19:08.514Z,102710.25
2023-02-08T10:22:38.803Z,102704.94
2023-02-08T10:26:01.035Z,102702.47
2023-02-08T10:29:22.276Z,102695.44
2023-02-08T10:32:35.906Z,102692.81
2023-02-08T10:35:44.794Z,102692.50
2023-02-08T10:38:51.870Z,102687.66
2023-02-08T10:41:54.833Z,102678.53
2023-02-08T10:45:24.868Z,102689.25
2023-02-08T10:49:00.130Z,102696.78
2023-02-08T10:52:03.069Z,102697.91
2023-02-08T10:55:14.697Z,102686.22
2023-02-08T10:58:24.353Z,102696.56
2023-02-08T11:01:29.857Z,102697.34
2023-02-08T11:04:32.855Z,102697.66
2023-02-08T11:07:37.361Z,102690.81
2023-02-08T11:10:43.567Z,102701.38
2023-02-08T11:13:52.200Z,102692.50
2023-02-08T11:16:58.054Z,102689.00
2023-02-08T11:20:01.155Z,102697.97
2023-02-08T11:23:28.692Z,102689.97
2023-02-08T11:26:31.335Z,102677.72
2023-02-08T11:29:34.120Z,102685.69
2023-02-08T11:32:37.001Z,102682.91
2023-02-08T11:35:41.725Z,102689.47
2023-02-08T11:38:44.808Z,102697.97
2023-02-08T11:41:50.065Z,102688.50
2023-02-08T11:44:54.895Z,102684.53
2023-02-08T11:47:58.840Z,102689.25
2023-02-08T11:51:03.630Z,102679.50
2023-02-08T11:54:06.873Z,102686.03
2023-02-08T11:57:14.592Z,102683.72
2023-02-08T12:00:30.853Z,102679.84
2023-02-08T12:03:39.945Z,102682.44
2023-02-08T12:07:19.836Z,102675.59
2023-02-08T12:10:47.804Z,102670.41
2023-02-08T12:14:08.794Z,102660.59
2023-02-08T12:17:43.293Z,102676.91
2023-02-08T12:20:47.264Z,102671.00
2023-02-08T12:24:03.318Z,102676.00
2023-02-08T12:27:36.169Z,102667.19
2023-02-08T12:31:11.990Z,102670.47
2023-02-08T12:34:27.962Z,102665.47
2023-02-08T12:37:58.193Z,102662.63
2023-02-08T12:41:00.939Z,102671.03
2023-02-08T12:44:27.223Z,102659.44
2023-02-08T12:47:35.923Z,102660.16
2023-02-08T12:50:41.601Z,102653.38
2023-02-08T12:53:49.394Z,102634.53
2023-02-08T12:57:02.085Z,102638.16
2023-02-08T13:00:16.394Z,102636.47
2023-02-08T13:03:49.678Z,102627.25
2023-02-08T13:07:02.997Z,102634.97
2023-02-08T13:10:30.897Z,102633.72
2023-02-08T13:13:39.688Z,102639.63
2023-02-08T13:16:49.302Z,102642.88
2023-02-08T13:20:20.656Z,102650.19
2023-02-08T13:23:25.701Z,102650.53
2023-02-08T13:26:34.064Z,102642.88
2023-02-08T13:29:38.560Z,102646.88
2023-02-08T13:32:45.787Z,102656.13
2023-02-08T13:35:53.658Z,102662.75
2023-02-08T13:38:59.331Z,102658.47
2023-02-08T13:42:04.419Z,102650.59
2023-02-08T13:45:09.852Z,102656.22
2023-02-08T13:48:16.478Z,102648.59
2023-02-08T13:51:31.321Z,102658.72
2023-02-08T13:54:34.307Z,102656.88
2023-02-08T13:57:50.738Z,102660.50
2023-02-08T14:00:53.982Z,102663.47
2023-02-08T14:04:09.969Z,102664.38
2023-02-08T14:07:22.163Z,102655.03
2023-02-08T14:10:43.407Z,102653.41
2023-02-08T14:13:52.674Z,102655.44
2023-02-08T14:17:05.605Z,102658.69
2023-02-08T14:20:19.472Z,102655.50
2023-02-08T14:23:27.667Z,102663.72
2023-02-08T14:26:31.523Z,102660.56
2023-02-08T14:29:35.968Z,102654.50
2023-02-08T14:32:41.300Z,102656.66
2023-02-08T14:35:56.692Z,102661.59
2023-02-08T14:39:27.853Z,102659.88
2023-02-08T14:42:55.794Z,102665.13
2023-02-08T14:46:37.080Z,102662.41
2023-02-08T14:49:43.550Z,102661.53
2023-02-08T14:52:56.459Z,102661.53
2023-02-08T14:56:29.755Z,102666.69
2023-02-08T14:59:35.858Z,102662.25
2023-02-08T15:02:44.925Z,102657.88
2023-02-08T15:06:21.428Z,102664.28
2023-02-08T15:09:43.400Z,102656.47
2023-02-08T15:13:03.841Z,102661.06
2023-02-08T15:16:12.670Z,102653.75
2023-02-08T15:19:32.047Z,102665.13
2023-02-08T15:22:42.311Z,102672.44
2023-02-08T15:26:07.160Z,102668.50
2023-02-08T15:29:39.108Z,102671.38
2023-02-08T15:32:47.200Z,102678.69
2023-02-08T15:36:06.626Z,102675.34
2023-02-08T15:39:19.200Z,102682.16
2023-02-08T15:42:28.981Z,102679.00
2023-02-08T15:45:31.790Z,102666.63
2023-02-08T15:48:45.828Z,102672.66
2023-02-08T15:51:50.658Z,102667.13
2023-02-08T15:54:53.629Z,102675.88
2023-02-08T15:58:08.471Z,102676.91
2023-02-08T16:01:21.640Z,102683.78
2023-02-08T16:04:26.004Z,102676.50
2023-02-08T16:07:37.342Z,102679.38
2023-02-08T16:10:46.763Z,102688.13
2023-02-08T16:13:53.038Z,102696.91
2023-02-08T16:16:58.280Z,102702.19
2023-02-08T16:20:01.758Z,102698.34
2023-02-08T16:23:26.730Z,102700.22
2023-02-08T16:26:55.864Z,102702.19
2023-02-08T16:30:00.066Z,102711.56
2023-02-08T16:33:07.422Z,102709.91
2023-02-08T16:36:23.185Z,102705.94
2023-02-08T16:39:48.800Z,102711.47
2023-02-08T16:42:51.527Z,102714.19
2023-02-08T16:46:09.343Z,102714.38
2023-02-08T16:49:12.340Z,102723.44
2023-02-08T16:52:15.703Z,102724.22
2023-02-08T16:55:22.062Z,102721.03
2023-02-08T16:58:25.144Z,102721.38
2023-02-08T17:01:28.670Z,102722.38
2023-02-08T17:04:32.235Z,102729.41
2023-02-08T17:07:35.124Z,102730.28
2023-02-08T17:10:39.073Z,102730.69
2023-02-08T17:13:42.357Z,102735.22
2023-02-08T17:16:45.395Z,102735.97
2023-02-08T17:19:48.175Z,102742.13
2023-02-08T17:22:52.620Z,102738.81
2023-02-08T17:25:57.000Z,102740.50
2023-02-08T17:29:00.021Z,102739.00
2023-02-08T17:32:02.903Z,102745.94
2023-02-08T17:35:06.029Z,102750.28
2023-02-08T17:38:09.045Z,102744.69
2023-02-08T17:41:21.577Z,102757.31
2023-02-08T17:44:24.925Z,102758.06
2023-02-08T17:47:27.737Z,102760.56
2023-02-08T17:50:31.154Z,102756.41
2023-02-08T17:53:38.411Z,102765.06
2023-02-08T17:56:41.483Z,102771.19
2023-02-08T17:59:44.485Z,102769.59
2023-02-08T18:02:50.532Z,102779.09
2023-02-08T18:05:57.400Z,102772.56
2023-02-08T18:09:00.217Z,102781.78
2023-02-08T18:12:03.005Z,102778.53
2023-02-08T18:15:07.891Z,102777.66
2023-02-08T18:18:10.852Z,102779.41
2023-02-08T18:21:17.291Z,102779.38
2023-02-08T18:24:20.206Z,102785.19
2023-02-08T18:27:25.277Z,102783.63
2023-02-08T18:30:30.288Z,102784.72
2023-02-08T18:33:34.063Z,102779.78
2023-02-08T18:36:37.120Z,102772.41
2023-02-08T18:39:40.732Z,102786.78
2023-02-08T18:42:43.586Z,102786.94
2023-02-08T18:46:00.578Z,102795.44
2023-02-08T18:49:03.770Z,102787.16
2023-02-08T18:52:16.053Z,102791.50
2023-02-08T18:55:19.223Z,102787.09
2023-02-08T18:58:23.274Z,102786.06
2023-02-08T19:01:29.032Z,102788.28
2023-02-08T19:04:37.648Z,102784.81
2023-02-08T19:07:40.716Z,102788.88
2023-02-08T19:10:43.801Z,102781.78
2023-02-08T19:13:47.552Z,102791.09
2023-02-08T19:16:50.512Z,102799.78
2023-02-08T19:19:53.514Z,102792.38
2023-02-08T19:22:56.749Z,102796.50
2023-02-08T19:26:04.406Z,102792.44
2023-02-08T19:29:11.037Z,102792.75
2023-02-08T19:32:14.042Z,102800.72
2023-02-08T19:35:16.855Z,102796.66
2023-02-08T19:38:19.873Z,102802.63
2023-02-08T19:41:26.223Z,102803.69
2023-02-08T19:44:30.616Z,102795.41
2023-02-08T19:47:50.286Z,102803.06
2023-02-08T19:50:59.904Z,102800.59
2023-02-08T19:54:06.291Z,102791.38
2023-02-08T19:57:11.987Z,102799.03
2023-02-08T20:00:23.453Z,102797.56
2023-02-08T20:03:27.633Z,102801.03
2023-02-08T20:06:34.955Z,102798.50
2023-02-08T20:09:37.975Z,102800.34
2023-02-08T20:12:40.842Z,102799.59
2023-02-08T20:15:44.911Z,102805.75
2023-02-08T20:18:48.476Z,102805.53
2023-02-08T20:21:52.566Z,102804.84
2023-02-08T20:24:55.791Z,102809.22
2023-02-08T20:27:59.423Z,102798.34
2023-02-08T20:31:07.862Z,102795.91
2023-02-08T20:34:14.131Z,102797.59
2023-02-08T20:37:21.128Z,102794.94
2023-02-08T20:40:24.361Z,102798.34
2023-02-08T20:43:27.473Z,102785.72
2023-02-08T20:46:34.891Z,102793.31
2023-02-08T20:49:39.485Z,102789.09
2023-02-08T20:52:45.350Z,102790.94
2023-02-08T20:55:48.538Z,102786.00
2023-02-08T20:58:53.709Z,102788.53
2023-02-08T21:01:56.963Z,102785.22
2023-02-08T21:04:59.874Z,102776.09
2023-02-08T21:08:02.968Z,102788.81
2023-02-08T21:11:07.058Z,102779.47
2023-02-08T21:14:15.421Z,102781.31
2023-02-08T21:17:18.181Z,102785.47
2023-02-08T21:20:21.921Z,102788.13
2023-02-08T21:23:24.746Z,102787.31
2023-02-08T21:26:27.780Z,102789.88
2023-02-08T21:29:32.715Z,102787.34
2023-02-08T21:32:35.648Z,102784.84
2023-02-08T21:35:38.551Z,102783.22
2023-02-08T21:38:41.930Z,102781.53
2023-02-08T21:41:45.282Z,102782.47
2023-02-08T21:44:48.114Z,102779.13
2023-02-08T21:47:50.861Z,102779.03
2023-02-08T21:51:12.631Z,102779.97
2023-02-08T21:54:37.109Z,102780.88
2023-02-08T21:57:41.245Z,102773.28
2023-02-08T22:00:44.432Z,102784.34
2023-02-08T22:03:47.325Z,102782.53
2023-02-08T22:06:50.177Z,102774.00
2023-02-08T22:09:53.657Z,102769.78
2023-02-08T22:12:57.798Z,102768.94
2023-02-08T22:16:00.823Z,102774.94
2023-02-08T22:19:03.807Z,102781.00
2023-02-08T22:22:07.700Z,102781.75
2023-02-08T22:25:10.466Z,102773.38
2023-02-08T22:28:13.479Z,102771.72
2023-02-08T22:31:16.688Z,102772.50
2023-02-08T22:34:20.063Z,102781.03
2023-02-08T22:37:23.189Z,102772.44
2023-02-08T22:40:27.078Z,102775.75
2023-02-08T22:43:30.079Z,102780.75
2023-02-08T22:46:36.024Z,102766.28
2023-02-08T22:49:39.452Z,102766.44
2023-02-08T22:52:42.305Z,102762.25
2023-02-08T22:55:52.497Z,102769.09
2023-02-08T22:58:55.663Z,102757.44
2023-02-08T23:01:58.605Z,102770.06
2023-02-08T23:05:01.387Z,102767.47
2023-02-08T23:08:04.169Z,102761.50
2023-02-08T23:11:08.220Z,102766.53
2023-02-08T23:14:11.241Z,102767.47
2023-02-08T23:17:14.081Z,102759.09
2023-02-08T23:20:17.149Z,102765.00
2023-02-08T23:23:21.643Z,102758.25
2023-02-08T23:26:25.176Z,102751.41
2023-02-08T23:29:28.011Z,102755.63
2023-02-08T23:32:30.883Z,102755.59
2023-02-08T23:35:33.798Z,102735.34
2023-02-08T23:38:36.741Z,102738.69
2023-02-08T23:41:39.560Z,102742.84
2023-02-08T23:44:42.437Z,102742.75
2023-02-08T23:47:45.270Z,102742.66
2023-02-08T23:51:00.268Z,102749.25
2023-02-08T23:54:02.998Z,102745.00
2023-02-08T23:57:05.853Z,102744.16
